sensor_id;sensor_type;location;lat;lon;timestamp;P1;durP1;ratioP1;P2;durP2;ratioP2
10094;SDS011;5086;50.830;7.102;2023-04-24T00:00:37;1.15;;;1.00;;
10094;SDS011;5086;50.830;7.102;2023-04-24T00:03:05;1.17;;;1.08;;
10094;SDS011;5086;50.830;7.102;2023-04-24T00:05:34;1.20;;;1.10;;
10094;SDS011;5086;50.830;7.102;2023-04-24T00:08:01;1.70;;;1.10;;
10094;SDS011;5086;50.830;7.102;2023-04-24T00:10:31;3.83;;;1.10;;
10094;SDS011;5086;50.830;7.102;2023-04-24T00:12:58;1.27;;;1.17;;
10094;SDS011;5086;50.830;7.102;2023-04-24T00:15:28;1.17;;;1.08;;
10094;SDS011;5086;50.830;7.102;2023-04-24T00:18:01;2.13;;;1.00;;
10094;SDS011;5086;50.830;7.102;2023-04-24T00:20:28;2.00;;;0.90;;
10094;SDS011;5086;50.830;7.102;2023-04-24T00:22:59;0.95;;;0.80;;
10094;SDS011;5086;50.830;7.102;2023-04-24T00:25:28;2.45;;;0.90;;
10094;SDS011;5086;50.830;7.102;2023-04-24T00:27:54;1.30;;;1.00;;
10094;SDS011;5086;50.830;7.102;2023-04-24T00:30:21;7.45;;;1.10;;
10094;SDS011;5086;50.830;7.102;2023-04-24T00:32:54;1.30;;;0.93;;
10094;SDS011;5086;50.830;7.102;2023-04-24T00:35:21;1.25;;;1.02;;
10094;SDS011;5086;50.830;7.102;2023-04-24T00:37:48;1.55;;;1.10;;
10094;SDS011;5086;50.830;7.102;2023-04-24T00:40:19;2.45;;;1.10;;
10094;SDS011;5086;50.830;7.102;2023-04-24T00:42:46;0.88;;;0.88;;
10094;SDS011;5086;50.830;7.102;2023-04-24T00:45:12;1.15;;;1.05;;
10094;SDS011;5086;50.830;7.102;2023-04-24T00:47:40;1.02;;;0.98;;
10094;SDS011;5086;50.830;7.102;2023-04-24T00:50:08;1.10;;;1.00;;
10094;SDS011;5086;50.830;7.102;2023-04-24T00:52:36;1.55;;;1.00;;
10094;SDS011;5086;50.830;7.102;2023-04-24T00:55:06;1.08;;;0.98;;
10094;SDS011;5086;50.830;7.102;2023-04-24T00:57:37;1.48;;;1.30;;
10094;SDS011;5086;50.830;7.102;2023-04-24T01:00:05;1.30;;;1.10;;
10094;SDS011;5086;50.830;7.102;2023-04-24T01:02:37;1.20;;;0.93;;
10094;SDS011;5086;50.830;7.102;2023-04-24T01:05:09;1.10;;;1.00;;
10094;SDS011;5086;50.830;7.102;2023-04-24T01:07:36;0.90;;;0.90;;
10094;SDS011;5086;50.830;7.102;2023-04-24T01:10:04;0.98;;;0.90;;
10094;SDS011;5086;50.830;7.102;2023-04-24T01:12:32;1.42;;;1.17;;
10094;SDS011;5086;50.830;7.102;2023-04-24T01:15:02;0.90;;;0.90;;
10094;SDS011;5086;50.830;7.102;2023-04-24T01:17:30;4.60;;;0.93;;
10094;SDS011;5086;50.830;7.102;2023-04-24T01:19:57;1.10;;;1.00;;
10094;SDS011;5086;50.830;7.102;2023-04-24T01:22:26;1.08;;;1.02;;
10094;SDS011;5086;50.830;7.102;2023-04-24T01:24:53;1.30;;;0.98;;
10094;SDS011;5086;50.830;7.102;2023-04-24T01:27:20;1.20;;;1.08;;
10094;SDS011;5086;50.830;7.102;2023-04-24T01:29:50;2.45;;;0.95;;
10094;SDS011;5086;50.830;7.102;2023-04-24T01:32:17;1.42;;;1.05;;
10094;SDS011;5086;50.830;7.102;2023-04-24T01:34:45;1.35;;;1.10;;
10094;SDS011;5086;50.830;7.102;2023-04-24T01:37:12;1.45;;;1.35;;
10094;SDS011;5086;50.830;7.102;2023-04-24T01:39:42;1.33;;;1.20;;
10094;SDS011;5086;50.830;7.102;2023-04-24T01:42:09;1.90;;;1.33;;
10094;SDS011;5086;50.830;7.102;2023-04-24T01:44:36;3.17;;;1.30;;
10094;SDS011;5086;50.830;7.102;2023-04-24T01:47:03;2.80;;;1.65;;
10094;SDS011;5086;50.830;7.102;2023-04-24T01:49:30;3.28;;;2.92;;
10094;SDS011;5086;50.830;7.102;2023-04-24T01:51:57;1.92;;;1.40;;
10094;SDS011;5086;50.830;7.102;2023-04-24T01:54:24;2.08;;;1.50;;
10094;SDS011;5086;50.830;7.102;2023-04-24T01:56:52;2.47;;;1.80;;
10094;SDS011;5086;50.830;7.102;2023-04-24T01:59:19;2.90;;;2.60;;
10094;SDS011;5086;50.830;7.102;2023-04-24T02:01:47;2.65;;;1.58;;
10094;SDS011;5086;50.830;7.102;2023-04-24T02:04:14;2.05;;;1.58;;
10094;SDS011;5086;50.830;7.102;2023-04-24T02:06:41;3.92;;;1.50;;
10094;SDS011;5086;50.830;7.102;2023-04-24T02:09:08;2.45;;;1.75;;
10094;SDS011;5086;50.830;7.102;2023-04-24T02:11:35;2.55;;;1.90;;
10094;SDS011;5086;50.830;7.102;2023-04-24T02:14:04;3.03;;;1.38;;
10094;SDS011;5086;50.830;7.102;2023-04-24T02:16:30;2.10;;;1.50;;
10094;SDS011;5086;50.830;7.102;2023-04-24T02:18:58;2.05;;;1.85;;
10094;SDS011;5086;50.830;7.102;2023-04-24T02:21:28;2.00;;;1.60;;
10094;SDS011;5086;50.830;7.102;2023-04-24T02:23:56;2.05;;;1.70;;
10094;SDS011;5086;50.830;7.102;2023-04-24T02:26:23;2.03;;;1.83;;
10094;SDS011;5086;50.830;7.102;2023-04-24T02:28:50;3.05;;;1.80;;
10094;SDS011;5086;50.830;7.102;2023-04-24T02:31:18;1.98;;;1.83;;
10094;SDS011;5086;50.830;7.102;2023-04-24T02:33:45;3.85;;;2.45;;
10094;SDS011;5086;50.830;7.102;2023-04-24T02:36:12;7.75;;;3.47;;
10094;SDS011;5086;50.830;7.102;2023-04-24T02:38:39;4.75;;;2.90;;
10094;SDS011;5086;50.830;7.102;2023-04-24T02:41:06;5.20;;;2.67;;
10094;SDS011;5086;50.830;7.102;2023-04-24T02:43:32;5.65;;;2.95;;
10094;SDS011;5086;50.830;7.102;2023-04-24T02:45:59;4.43;;;2.97;;
10094;SDS011;5086;50.830;7.102;2023-04-24T02:48:28;5.95;;;3.45;;
10094;SDS011;5086;50.830;7.102;2023-04-24T02:50:55;4.07;;;2.90;;
10094;SDS011;5086;50.830;7.102;2023-04-24T02:53:22;5.95;;;3.22;;
10094;SDS011;5086;50.830;7.102;2023-04-24T02:55:49;4.65;;;3.45;;
10094;SDS011;5086;50.830;7.102;2023-04-24T02:58:16;4.25;;;3.13;;
10094;SDS011;5086;50.830;7.102;2023-04-24T03:00:45;7.80;;;3.30;;
10094;SDS011;5086;50.830;7.102;2023-04-24T03:03:11;4.90;;;3.22;;
10094;SDS011;5086;50.830;7.102;2023-04-24T03:05:40;11.18;;;3.20;;
10094;SDS011;5086;50.830;7.102;2023-04-24T03:08:06;9.18;;;4.25;;
10094;SDS011;5086;50.830;7.102;2023-04-24T03:10:36;4.43;;;3.13;;
10094;SDS011;5086;50.830;7.102;2023-04-24T03:13:03;5.32;;;3.22;;
10094;SDS011;5086;50.830;7.102;2023-04-24T03:15:32;7.45;;;3.10;;
10094;SDS011;5086;50.830;7.102;2023-04-24T03:17:59;5.55;;;3.22;;
10094;SDS011;5086;50.830;7.102;2023-04-24T03:20:25;8.25;;;3.40;;
10094;SDS011;5086;50.830;7.102;2023-04-24T03:22:55;4.53;;;2.78;;
10094;SDS011;5086;50.830;7.102;2023-04-24T03:25:22;5.07;;;3.42;;
10094;SDS011;5086;50.830;7.102;2023-04-24T03:27:49;9.82;;;2.90;;
10094;SDS011;5086;50.830;7.102;2023-04-24T03:30:16;5.05;;;3.10;;
10094;SDS011;5086;50.830;7.102;2023-04-24T03:32:43;4.95;;;3.00;;
10094;SDS011;5086;50.830;7.102;2023-04-24T03:35:10;8.73;;;3.50;;
10094;SDS011;5086;50.830;7.102;2023-04-24T03:37:36;6.25;;;3.30;;
10094;SDS011;5086;50.830;7.102;2023-04-24T03:40:05;4.97;;;3.40;;
10094;SDS011;5086;50.830;7.102;2023-04-24T03:42:33;4.85;;;3.15;;
10094;SDS011;5086;50.830;7.102;2023-04-24T03:45:00;5.90;;;3.65;;
10094;SDS011;5086;50.830;7.102;2023-04-24T03:47:27;4.38;;;2.97;;
10094;SDS011;5086;50.830;7.102;2023-04-24T03:49:54;6.55;;;3.22;;
10094;SDS011;5086;50.830;7.102;2023-04-24T03:52:21;5.55;;;3.30;;
10094;SDS011;5086;50.830;7.102;2023-04-24T03:54:48;4.43;;;3.55;;
10094;SDS011;5086;50.830;7.102;2023-04-24T03:57:19;5.47;;;3.33;;
10094;SDS011;5086;50.830;7.102;2023-04-24T03:59:46;4.80;;;3.38;;
10094;SDS011;5086;50.830;7.102;2023-04-24T04:02:12;6.10;;;3.50;;
10094;SDS011;5086;50.830;7.102;2023-04-24T04:04:39;5.45;;;3.10;;
10094;SDS011;5086;50.830;7.102;2023-04-24T04:07:06;7.55;;;3.92;;
10094;SDS011;5086;50.830;7.102;2023-04-24T04:09:33;5.57;;;3.70;;
10094;SDS011;5086;50.830;7.102;2023-04-24T04:12:02;6.13;;;3.67;;
10094;SDS011;5086;50.830;7.102;2023-04-24T04:14:30;3.90;;;3.10;;
10094;SDS011;5086;50.830;7.102;2023-04-24T04:16:57;5.35;;;3.20;;
10094;SDS011;5086;50.830;7.102;2023-04-24T04:19:24;7.93;;;3.60;;
10094;SDS011;5086;50.830;7.102;2023-04-24T04:21:51;4.65;;;3.03;;
10094;SDS011;5086;50.830;7.102;2023-04-24T04:24:21;7.53;;;3.35;;
10094;SDS011;5086;50.830;7.102;2023-04-24T04:26:49;9.63;;;3.55;;
10094;SDS011;5086;50.830;7.102;2023-04-24T04:29:16;5.82;;;3.60;;
10094;SDS011;5086;50.830;7.102;2023-04-24T04:31:44;8.20;;;4.07;;
10094;SDS011;5086;50.830;7.102;2023-04-24T04:34:11;5.28;;;3.25;;
10094;SDS011;5086;50.830;7.102;2023-04-24T04:36:41;5.60;;;3.58;;
10094;SDS011;5086;50.830;7.102;2023-04-24T04:39:09;7.88;;;4.43;;
10094;SDS011;5086;50.830;7.102;2023-04-24T04:41:45;8.95;;;4.18;;
10094;SDS011;5086;50.830;7.102;2023-04-24T04:44:33;7.28;;;4.15;;
10094;SDS011;5086;50.830;7.102;2023-04-24T04:47:05;7.57;;;3.95;;
10094;SDS011;5086;50.830;7.102;2023-04-24T04:49:43;7.97;;;3.45;;
10094;SDS011;5086;50.830;7.102;2023-04-24T04:52:10;11.60;;;4.43;;
10094;SDS011;5086;50.830;7.102;2023-04-24T04:54:37;7.22;;;4.00;;
10094;SDS011;5086;50.830;7.102;2023-04-24T04:57:06;7.20;;;4.05;;
10094;SDS011;5086;50.830;7.102;2023-04-24T04:59:33;4.75;;;3.10;;
10094;SDS011;5086;50.830;7.102;2023-04-24T05:02:00;5.30;;;3.92;;
10094;SDS011;5086;50.830;7.102;2023-04-24T05:04:31;7.30;;;3.25;;
10094;SDS011;5086;50.830;7.102;2023-04-24T05:07:07;5.63;;;3.72;;
10094;SDS011;5086;50.830;7.102;2023-04-24T05:09:35;8.25;;;3.80;;
10094;SDS011;5086;50.830;7.102;2023-04-24T05:12:02;4.78;;;3.20;;
10094;SDS011;5086;50.830;7.102;2023-04-24T05:14:46;5.07;;;3.42;;
10094;SDS011;5086;50.830;7.102;2023-04-24T05:17:13;10.55;;;4.38;;
10094;SDS011;5086;50.830;7.102;2023-04-24T05:19:46;8.63;;;3.17;;
10094;SDS011;5086;50.830;7.102;2023-04-24T05:22:16;6.43;;;4.03;;
10094;SDS011;5086;50.830;7.102;2023-04-24T05:24:48;8.32;;;4.18;;
10094;SDS011;5086;50.830;7.102;2023-04-24T05:27:18;5.15;;;3.35;;
10094;SDS011;5086;50.830;7.102;2023-04-24T05:29:49;6.43;;;4.10;;
10094;SDS011;5086;50.830;7.102;2023-04-24T05:32:20;5.15;;;3.45;;
10094;SDS011;5086;50.830;7.102;2023-04-24T05:34:49;5.88;;;3.60;;
10094;SDS011;5086;50.830;7.102;2023-04-24T05:37:16;3.95;;;2.97;;
10094;SDS011;5086;50.830;7.102;2023-04-24T05:43:23;3.78;;;2.90;;
10094;SDS011;5086;50.830;7.102;2023-04-24T05:46:11;10.20;;;3.50;;
10094;SDS011;5086;50.830;7.102;2023-04-24T05:48:38;4.00;;;3.47;;
10094;SDS011;5086;50.830;7.102;2023-04-24T05:51:06;6.40;;;3.72;;
10094;SDS011;5086;50.830;7.102;2023-04-24T05:53:35;5.32;;;3.20;;
10094;SDS011;5086;50.830;7.102;2023-04-24T05:56:04;5.68;;;3.63;;
10094;SDS011;5086;50.830;7.102;2023-04-24T05:58:31;9.10;;;4.32;;
10094;SDS011;5086;50.830;7.102;2023-04-24T06:00:58;5.15;;;3.30;;
10094;SDS011;5086;50.830;7.102;2023-04-24T06:03:26;7.78;;;3.78;;
10094;SDS011;5086;50.830;7.102;2023-04-24T06:05:53;6.63;;;3.30;;
10094;SDS011;5086;50.830;7.102;2023-04-24T06:08:22;7.20;;;3.90;;
10094;SDS011;5086;50.830;7.102;2023-04-24T06:10:50;4.32;;;2.70;;
10094;SDS011;5086;50.830;7.102;2023-04-24T06:13:17;5.20;;;3.22;;
10094;SDS011;5086;50.830;7.102;2023-04-24T06:15:46;5.47;;;3.28;;
10094;SDS011;5086;50.830;7.102;2023-04-24T06:18:13;6.15;;;3.33;;
10094;SDS011;5086;50.830;7.102;2023-04-24T06:20:40;4.03;;;3.35;;
10094;SDS011;5086;50.830;7.102;2023-04-24T06:23:07;7.50;;;3.97;;
10094;SDS011;5086;50.830;7.102;2023-04-24T06:25:35;6.70;;;3.72;;
10094;SDS011;5086;50.830;7.102;2023-04-24T06:28:02;5.10;;;3.65;;
10094;SDS011;5086;50.830;7.102;2023-04-24T06:30:29;7.47;;;3.60;;
10094;SDS011;5086;50.830;7.102;2023-04-24T06:33:03;6.47;;;3.50;;
10094;SDS011;5086;50.830;7.102;2023-04-24T06:35:30;6.65;;;3.83;;
10094;SDS011;5086;50.830;7.102;2023-04-24T06:37:57;5.57;;;3.50;;
10094;SDS011;5086;50.830;7.102;2023-04-24T06:40:25;9.75;;;4.78;;
10094;SDS011;5086;50.830;7.102;2023-04-24T06:42:54;5.55;;;3.55;;
10094;SDS011;5086;50.830;7.102;2023-04-24T06:45:21;6.53;;;3.90;;
10094;SDS011;5086;50.830;7.102;2023-04-24T06:47:48;6.47;;;3.45;;
10094;SDS011;5086;50.830;7.102;2023-04-24T06:50:15;5.82;;;3.30;;
10094;SDS011;5086;50.830;7.102;2023-04-24T06:52:42;6.40;;;3.42;;
10094;SDS011;5086;50.830;7.102;2023-04-24T06:55:09;6.75;;;3.13;;
10094;SDS011;5086;50.830;7.102;2023-04-24T06:57:36;7.10;;;2.92;;
10094;SDS011;5086;50.830;7.102;2023-04-24T07:00:06;3.38;;;2.60;;
10094;SDS011;5086;50.830;7.102;2023-04-24T07:02:34;4.43;;;3.10;;
10094;SDS011;5086;50.830;7.102;2023-04-24T07:05:01;5.50;;;2.67;;
10094;SDS011;5086;50.830;7.102;2023-04-24T07:07:28;4.93;;;2.90;;
10094;SDS011;5086;50.830;7.102;2023-04-24T07:09:55;8.07;;;2.83;;
10094;SDS011;5086;50.830;7.102;2023-04-24T07:12:21;4.80;;;2.88;;
10094;SDS011;5086;50.830;7.102;2023-04-24T07:14:48;5.43;;;2.70;;
10094;SDS011;5086;50.830;7.102;2023-04-24T07:17:17;4.60;;;2.60;;
10094;SDS011;5086;50.830;7.102;2023-04-24T07:19:44;3.05;;;2.35;;
10094;SDS011;5086;50.830;7.102;2023-04-24T07:22:11;2.60;;;2.08;;
10094;SDS011;5086;50.830;7.102;2023-04-24T07:24:41;2.95;;;2.58;;
10094;SDS011;5086;50.830;7.102;2023-04-24T07:27:08;2.92;;;2.03;;
10094;SDS011;5086;50.830;7.102;2023-04-24T07:29:38;2.80;;;1.80;;
10094;SDS011;5086;50.830;7.102;2023-04-24T07:32:05;2.53;;;1.80;;
10094;SDS011;5086;50.830;7.102;2023-04-24T07:34:34;2.25;;;1.65;;
10094;SDS011;5086;50.830;7.102;2023-04-24T07:37:00;2.00;;;1.80;;
10094;SDS011;5086;50.830;7.102;2023-04-24T07:39:28;2.10;;;1.67;;
10094;SDS011;5086;50.830;7.102;2023-04-24T07:41:55;3.08;;;1.60;;
10094;SDS011;5086;50.830;7.102;2023-04-24T07:44:23;2.08;;;1.50;;
10094;SDS011;5086;50.830;7.102;2023-04-24T07:46:50;2.13;;;1.30;;
10094;SDS011;5086;50.830;7.102;2023-04-24T07:49:17;1.52;;;1.40;;
10094;SDS011;5086;50.830;7.102;2023-04-24T07:51:45;1.60;;;1.30;;
10094;SDS011;5086;50.830;7.102;2023-04-24T07:54:12;1.33;;;1.23;;
10094;SDS011;5086;50.830;7.102;2023-04-24T07:56:40;2.40;;;1.30;;
10094;SDS011;5086;50.830;7.102;2023-04-24T07:59:08;1.30;;;1.20;;
10094;SDS011;5086;50.830;7.102;2023-04-24T08:01:35;1.30;;;1.20;;
10094;SDS011;5086;50.830;7.102;2023-04-24T08:04:02;1.50;;;1.10;;
10094;SDS011;5086;50.830;7.102;2023-04-24T08:06:29;1.27;;;1.15;;
10094;SDS011;5086;50.830;7.102;2023-04-24T08:08:58;1.30;;;1.20;;
10094;SDS011;5086;50.830;7.102;2023-04-24T08:11:29;1.27;;;1.17;;
10094;SDS011;5086;50.830;7.102;2023-04-24T08:13:57;1.52;;;1.27;;
10094;SDS011;5086;50.830;7.102;2023-04-24T08:16:28;1.83;;;1.40;;
10094;SDS011;5086;50.830;7.102;2023-04-24T08:18:55;1.23;;;1.13;;
10094;SDS011;5086;50.830;7.102;2023-04-24T08:21:22;2.45;;;1.98;;
10094;SDS011;5086;50.830;7.102;2023-04-24T08:23:58;3.83;;;1.58;;
10094;SDS011;5086;50.830;7.102;2023-04-24T08:26:29;1.50;;;1.35;;
10094;SDS011;5086;50.830;7.102;2023-04-24T08:28:59;1.58;;;1.30;;
10094;SDS011;5086;50.830;7.102;2023-04-24T08:31:26;3.10;;;1.52;;
10094;SDS011;5086;50.830;7.102;2023-04-24T08:33:54;2.58;;;1.85;;
10094;SDS011;5086;50.830;7.102;2023-04-24T08:36:21;3.38;;;1.73;;
10094;SDS011;5086;50.830;7.102;2023-04-24T08:38:48;5.75;;;1.60;;
10094;SDS011;5086;50.830;7.102;2023-04-24T08:41:18;4.28;;;1.63;;
10094;SDS011;5086;50.830;7.102;2023-04-24T08:43:46;2.50;;;1.70;;
10094;SDS011;5086;50.830;7.102;2023-04-24T08:46:13;2.67;;;1.80;;
10094;SDS011;5086;50.830;7.102;2023-04-24T08:48:42;2.15;;;1.35;;
10094;SDS011;5086;50.830;7.102;2023-04-24T08:51:09;1.48;;;1.38;;
10094;SDS011;5086;50.830;7.102;2023-04-24T08:53:36;1.65;;;1.50;;
10094;SDS011;5086;50.830;7.102;2023-04-24T08:56:04;2.00;;;1.65;;
10094;SDS011;5086;50.830;7.102;2023-04-24T08:58:33;3.78;;;1.20;;
10094;SDS011;5086;50.830;7.102;2023-04-24T09:01:02;1.65;;;1.40;;
10094;SDS011;5086;50.830;7.102;2023-04-24T09:03:31;3.53;;;1.80;;
10094;SDS011;5086;50.830;7.102;2023-04-24T09:05:59;1.67;;;1.52;;
10094;SDS011;5086;50.830;7.102;2023-04-24T09:08:27;3.35;;;1.77;;
10094;SDS011;5086;50.830;7.102;2023-04-24T09:10:55;2.90;;;2.10;;
10094;SDS011;5086;50.830;7.102;2023-04-24T09:13:23;1.90;;;1.60;;
10094;SDS011;5086;50.830;7.102;2023-04-24T09:15:52;3.20;;;2.03;;
10094;SDS011;5086;50.830;7.102;2023-04-24T09:18:19;3.80;;;2.00;;
10094;SDS011;5086;50.830;7.102;2023-04-24T09:20:59;3.17;;;1.98;;
10094;SDS011;5086;50.830;7.102;2023-04-24T09:23:31;3.75;;;1.83;;
10094;SDS011;5086;50.830;7.102;2023-04-24T09:25:59;2.50;;;1.83;;
10094;SDS011;5086;50.830;7.102;2023-04-24T09:28:27;2.90;;;1.90;;
10094;SDS011;5086;50.830;7.102;2023-04-24T09:31:08;2.30;;;2.00;;
10094;SDS011;5086;50.830;7.102;2023-04-24T09:33:36;2.92;;;2.00;;
10094;SDS011;5086;50.830;7.102;2023-04-24T09:36:03;8.10;;;2.50;;
10094;SDS011;5086;50.830;7.102;2023-04-24T09:38:31;4.10;;;2.30;;
10094;SDS011;5086;50.830;7.102;2023-04-24T09:41:04;2.88;;;2.15;;
10094;SDS011;5086;50.830;7.102;2023-04-24T09:43:37;7.65;;;2.85;;
10094;SDS011;5086;50.830;7.102;2023-04-24T09:46:05;13.82;;;2.85;;
10094;SDS011;5086;50.830;7.102;2023-04-24T09:48:35;4.50;;;2.70;;
10094;SDS011;5086;50.830;7.102;2023-04-24T09:51:04;4.30;;;2.90;;
10094;SDS011;5086;50.830;7.102;2023-04-24T09:53:36;8.05;;;2.50;;
10094;SDS011;5086;50.830;7.102;2023-04-24T09:56:06;3.65;;;2.70;;
10094;SDS011;5086;50.830;7.102;2023-04-24T09:58:34;4.07;;;2.30;;
10094;SDS011;5086;50.830;7.102;2023-04-24T10:01:02;5.30;;;2.97;;
10094;SDS011;5086;50.830;7.102;2023-04-24T10:03:31;6.22;;;3.20;;
10094;SDS011;5086;50.830;7.102;2023-04-24T10:05:58;10.18;;;3.50;;
10094;SDS011;5086;50.830;7.102;2023-04-24T10:08:26;6.13;;;3.50;;
10094;SDS011;5086;50.830;7.102;2023-04-24T10:10:58;7.10;;;3.50;;
10094;SDS011;5086;50.830;7.102;2023-04-24T10:13:26;7.53;;;3.65;;
10094;SDS011;5086;50.830;7.102;2023-04-24T10:15:54;6.43;;;3.55;;
10094;SDS011;5086;50.830;7.102;2023-04-24T10:18:24;4.97;;;2.80;;
10094;SDS011;5086;50.830;7.102;2023-04-24T10:20:53;8.20;;;3.25;;
10094;SDS011;5086;50.830;7.102;2023-04-24T10:23:21;5.60;;;3.20;;
10094;SDS011;5086;50.830;7.102;2023-04-24T10:25:48;4.60;;;2.60;;
10094;SDS011;5086;50.830;7.102;2023-04-24T10:28:16;10.23;;;3.00;;
10094;SDS011;5086;50.830;7.102;2023-04-24T10:30:45;3.65;;;2.35;;
10094;SDS011;5086;50.830;7.102;2023-04-24T10:33:12;4.22;;;2.60;;
10094;SDS011;5086;50.830;7.102;2023-04-24T10:35:42;5.68;;;2.85;;
10094;SDS011;5086;50.830;7.102;2023-04-24T10:38:15;4.00;;;2.50;;
10094;SDS011;5086;50.830;7.102;2023-04-24T10:40:49;6.65;;;3.22;;
10094;SDS011;5086;50.830;7.102;2023-04-24T10:43:16;6.82;;;3.35;;
10094;SDS011;5086;50.830;7.102;2023-04-24T10:45:59;4.03;;;2.50;;
10094;SDS011;5086;50.830;7.102;2023-04-24T10:48:27;10.07;;;2.92;;
10094;SDS011;5086;50.830;7.102;2023-04-24T10:50:55;9.18;;;3.10;;
10094;SDS011;5086;50.830;7.102;2023-04-24T10:53:23;8.48;;;3.40;;
10094;SDS011;5086;50.830;7.102;2023-04-24T10:55:52;6.10;;;3.00;;
10094;SDS011;5086;50.830;7.102;2023-04-24T10:58:24;4.38;;;3.10;;
10094;SDS011;5086;50.830;7.102;2023-04-24T11:01:03;4.30;;;2.90;;
10094;SDS011;5086;50.830;7.102;2023-04-24T11:03:30;6.53;;;3.85;;
10094;SDS011;5086;50.830;7.102;2023-04-24T11:06:02;6.10;;;3.35;;
10094;SDS011;5086;50.830;7.102;2023-04-24T11:08:32;4.47;;;3.40;;
10094;SDS011;5086;50.830;7.102;2023-04-24T11:11:04;7.93;;;3.35;;
10094;SDS011;5086;50.830;7.102;2023-04-24T11:16:28;9.40;;;3.72;;
10094;SDS011;5086;50.830;7.102;2023-04-24T11:19:00;6.00;;;3.65;;
10094;SDS011;5086;50.830;7.102;2023-04-24T11:21:30;9.30;;;3.97;;
10094;SDS011;5086;50.830;7.102;2023-04-24T11:24:00;7.72;;;3.63;;
10094;SDS011;5086;50.830;7.102;2023-04-24T11:26:51;6.70;;;4.03;;
10094;SDS011;5086;50.830;7.102;2023-04-24T11:29:18;8.57;;;4.30;;
10094;SDS011;5086;50.830;7.102;2023-04-24T11:31:46;5.85;;;3.80;;
10094;SDS011;5086;50.830;7.102;2023-04-24T11:34:15;7.50;;;4.05;;
10094;SDS011;5086;50.830;7.102;2023-04-24T11:36:42;6.93;;;4.00;;
10094;SDS011;5086;50.830;7.102;2023-04-24T11:39:12;16.00;;;3.55;;
10094;SDS011;5086;50.830;7.102;2023-04-24T11:41:39;13.18;;;4.00;;
10094;SDS011;5086;50.830;7.102;2023-04-24T11:44:09;12.45;;;4.00;;
10094;SDS011;5086;50.830;7.102;2023-04-24T11:46:36;9.23;;;5.00;;
10094;SDS011;5086;50.830;7.102;2023-04-24T11:49:08;12.02;;;4.60;;
10094;SDS011;5086;50.830;7.102;2023-04-24T11:51:34;12.52;;;4.70;;
10094;SDS011;5086;50.830;7.102;2023-04-24T11:54:01;10.73;;;3.95;;
10094;SDS011;5086;50.830;7.102;2023-04-24T11:56:29;6.63;;;3.50;;
10094;SDS011;5086;50.830;7.102;2023-04-24T11:58:56;9.15;;;4.13;;
10094;SDS011;5086;50.830;7.102;2023-04-24T12:01:23;8.40;;;4.35;;
10094;SDS011;5086;50.830;7.102;2023-04-24T12:03:50;7.47;;;3.95;;
10094;SDS011;5086;50.830;7.102;2023-04-24T12:06:25;8.05;;;3.90;;
10094;SDS011;5086;50.830;7.102;2023-04-24T12:08:52;10.82;;;5.30;;
10094;SDS011;5086;50.830;7.102;2023-04-24T12:11:20;12.80;;;4.97;;
10094;SDS011;5086;50.830;7.102;2023-04-24T12:13:48;11.45;;;4.85;;
10094;SDS011;5086;50.830;7.102;2023-04-24T12:16:15;14.07;;;4.82;;
10094;SDS011;5086;50.830;7.102;2023-04-24T12:18:43;9.35;;;4.63;;
10094;SDS011;5086;50.830;7.102;2023-04-24T12:21:17;8.82;;;4.32;;
10094;SDS011;5086;50.830;7.102;2023-04-24T12:23:45;12.50;;;5.03;;
10094;SDS011;5086;50.830;7.102;2023-04-24T12:26:12;8.70;;;4.50;;
10094;SDS011;5086;50.830;7.102;2023-04-24T12:28:42;14.88;;;5.07;;
10094;SDS011;5086;50.830;7.102;2023-04-24T12:31:10;13.90;;;5.22;;
10094;SDS011;5086;50.830;7.102;2023-04-24T12:33:40;11.00;;;5.40;;
10094;SDS011;5086;50.830;7.102;2023-04-24T12:36:09;10.88;;;5.50;;
10094;SDS011;5086;50.830;7.102;2023-04-24T12:38:37;9.88;;;5.20;;
10094;SDS011;5086;50.830;7.102;2023-04-24T12:41:07;15.13;;;5.82;;
10094;SDS011;5086;50.830;7.102;2023-04-24T12:43:36;9.80;;;5.15;;
10094;SDS011;5086;50.830;7.102;2023-04-24T12:46:03;7.55;;;4.90;;
10094;SDS011;5086;50.830;7.102;2023-04-24T12:48:32;27.65;;;4.85;;
10094;SDS011;5086;50.830;7.102;2023-04-24T12:50:59;13.25;;;5.63;;
10094;SDS011;5086;50.830;7.102;2023-04-24T12:53:27;14.85;;;5.90;;
10094;SDS011;5086;50.830;7.102;2023-04-24T12:55:56;14.88;;;4.90;;
10094;SDS011;5086;50.830;7.102;2023-04-24T12:58:23;9.48;;;4.90;;
10094;SDS011;5086;50.830;7.102;2023-04-24T13:00:50;11.75;;;4.45;;
10094;SDS011;5086;50.830;7.102;2023-04-24T13:03:17;7.63;;;4.60;;
10094;SDS011;5086;50.830;7.102;2023-04-24T13:05:46;15.43;;;6.28;;
10094;SDS011;5086;50.830;7.102;2023-04-24T13:08:12;11.50;;;5.88;;
10094;SDS011;5086;50.830;7.102;2023-04-24T13:10:39;12.63;;;5.78;;
10094;SDS011;5086;50.830;7.102;2023-04-24T13:13:06;12.38;;;5.30;;
10094;SDS011;5086;50.830;7.102;2023-04-24T13:15:33;8.90;;;5.13;;
10094;SDS011;5086;50.830;7.102;2023-04-24T13:18:00;13.35;;;5.15;;
10094;SDS011;5086;50.830;7.102;2023-04-24T13:20:27;9.98;;;4.65;;
10094;SDS011;5086;50.830;7.102;2023-04-24T13:22:56;9.85;;;4.93;;
10094;SDS011;5086;50.830;7.102;2023-04-24T13:25:23;8.00;;;3.92;;
10094;SDS011;5086;50.830;7.102;2023-04-24T13:27:51;10.55;;;3.97;;
10094;SDS011;5086;50.830;7.102;2023-04-24T13:30:18;14.82;;;4.15;;
10094;SDS011;5086;50.830;7.102;2023-04-24T13:32:45;13.57;;;4.22;;
10094;SDS011;5086;50.830;7.102;2023-04-24T13:35:12;12.93;;;5.10;;
10094;SDS011;5086;50.830;7.102;2023-04-24T13:37:39;5.70;;;3.72;;
10094;SDS011;5086;50.830;7.102;2023-04-24T13:40:09;7.03;;;4.40;;
10094;SDS011;5086;50.830;7.102;2023-04-24T13:42:36;14.23;;;4.60;;
10094;SDS011;5086;50.830;7.102;2023-04-24T13:45:03;8.00;;;3.92;;
10094;SDS011;5086;50.830;7.102;2023-04-24T13:47:30;10.18;;;5.30;;
10094;SDS011;5086;50.830;7.102;2023-04-24T13:49:57;11.55;;;4.35;;
10094;SDS011;5086;50.830;7.102;2023-04-24T13:52:24;9.70;;;4.60;;
10094;SDS011;5086;50.830;7.102;2023-04-24T13:54:51;8.50;;;4.55;;
10094;SDS011;5086;50.830;7.102;2023-04-24T13:57:19;6.97;;;4.32;;
10094;SDS011;5086;50.830;7.102;2023-04-24T13:59:47;12.70;;;5.13;;
10094;SDS011;5086;50.830;7.102;2023-04-24T14:02:13;13.35;;;4.80;;
10094;SDS011;5086;50.830;7.102;2023-04-24T14:04:40;10.07;;;4.45;;
10094;SDS011;5086;50.830;7.102;2023-04-24T14:07:08;7.57;;;4.75;;
10094;SDS011;5086;50.830;7.102;2023-04-24T14:09:35;10.60;;;4.63;;
10094;SDS011;5086;50.830;7.102;2023-04-24T14:12:01;7.72;;;4.53;;
10094;SDS011;5086;50.830;7.102;2023-04-24T14:14:30;9.82;;;4.97;;
10094;SDS011;5086;50.830;7.102;2023-04-24T14:16:57;9.77;;;4.95;;
10094;SDS011;5086;50.830;7.102;2023-04-24T14:19:24;8.05;;;4.45;;
10094;SDS011;5086;50.830;7.102;2023-04-24T14:21:52;10.48;;;4.65;;
10094;SDS011;5086;50.830;7.102;2023-04-24T14:24:20;7.20;;;3.75;;
10094;SDS011;5086;50.830;7.102;2023-04-24T14:26:47;7.45;;;4.80;;
10094;SDS011;5086;50.830;7.102;2023-04-24T14:29:14;8.75;;;4.85;;
10094;SDS011;5086;50.830;7.102;2023-04-24T14:31:42;7.20;;;4.90;;
10094;SDS011;5086;50.830;7.102;2023-04-24T14:34:09;7.60;;;4.53;;
10094;SDS011;5086;50.830;7.102;2023-04-24T14:36:37;7.97;;;3.92;;
10094;SDS011;5086;50.830;7.102;2023-04-24T14:39:05;12.23;;;5.43;;
10094;SDS011;5086;50.830;7.102;2023-04-24T14:41:32;6.75;;;4.55;;
10094;SDS011;5086;50.830;7.102;2023-04-24T14:44:00;15.35;;;5.03;;
10094;SDS011;5086;50.830;7.102;2023-04-24T14:46:27;6.00;;;4.15;;
10094;SDS011;5086;50.830;7.102;2023-04-24T14:48:57;7.18;;;4.32;;
10094;SDS011;5086;50.830;7.102;2023-04-24T14:51:24;6.10;;;3.60;;
10094;SDS011;5086;50.830;7.102;2023-04-24T14:53:51;9.35;;;3.72;;
10094;SDS011;5086;50.830;7.102;2023-04-24T14:56:18;7.18;;;3.83;;
10094;SDS011;5086;50.830;7.102;2023-04-24T14:58:45;8.20;;;3.33;;
10094;SDS011;5086;50.830;7.102;2023-04-24T15:01:12;8.65;;;3.80;;
10094;SDS011;5086;50.830;7.102;2023-04-24T15:03:39;7.07;;;3.28;;
10094;SDS011;5086;50.830;7.102;2023-04-24T15:06:07;7.35;;;3.50;;
10094;SDS011;5086;50.830;7.102;2023-04-24T15:08:34;5.80;;;3.75;;
10094;SDS011;5086;50.830;7.102;2023-04-24T15:11:01;10.73;;;4.50;;
10094;SDS011;5086;50.830;7.102;2023-04-24T15:13:28;5.57;;;3.80;;